createdAt,value
2019-02-05T00:01:17.516Z,58.60
2019-02-05T00:03:45.966Z,59.20
2019-02-05T00:06:14.263Z,59.10
2019-02-05T00:08:42.622Z,59.00
2019-02-05T00:11:11.000Z,58.70
2019-02-05T00:13:39.428Z,59.10
2019-02-05T00:16:13.875Z,58.50
2019-02-05T00:18:42.228Z,58.40
2019-02-05T00:21:11.014Z,58.90
2019-02-05T00:23:39.954Z,59.20
2019-02-05T00:26:08.260Z,59.10
2019-02-05T00:28:36.665Z,59.40
2019-02-05T00:31:05.687Z,58.60
2019-02-05T00:33:34.664Z,58.70
2019-02-05T00:36:03.020Z,58.60
2019-02-05T00:38:31.615Z,59.20
2019-02-05T00:40:59.972Z,58.70
2019-02-05T00:43:28.593Z,58.80
2019-02-05T00:45:57.001Z,58.10
2019-02-05T00:48:25.352Z,59.00
2019-02-05T00:50:53.753Z,58.50
2019-02-05T00:53:22.926Z,58.40
2019-02-05T00:55:51.310Z,59.80
2019-02-05T00:58:19.659Z,58.90
2019-02-05T01:00:48.012Z,59.20
2019-02-05T01:03:16.398Z,59.10
2019-02-05T01:05:44.756Z,58.90
2019-02-05T01:08:13.499Z,58.70
2019-02-05T01:10:41.863Z,59.40
2019-02-05T01:13:10.561Z,59.00
2019-02-05T01:15:38.946Z,59.50
2019-02-05T01:18:07.304Z,59.70
2019-02-05T01:20:35.694Z,60.40
2019-02-05T01:23:04.049Z,58.90
2019-02-05T01:25:32.634Z,59.50
2019-02-05T01:28:20.436Z,59.50
2019-02-05T01:30:48.827Z,59.00
2019-02-05T01:33:17.179Z,59.30
2019-02-05T01:35:45.820Z,59.20
2019-02-05T01:38:14.207Z,59.20
2019-02-05T01:40:43.195Z,59.60
2019-02-05T01:43:11.580Z,59.20
2019-02-05T01:45:39.937Z,59.70
2019-02-05T01:48:08.632Z,59.20
2019-02-05T01:50:37.019Z,59.80
2019-02-05T01:53:05.573Z,59.30
2019-02-05T01:55:34.717Z,59.80
2019-02-05T01:58:03.471Z,60.20
2019-02-05T02:00:34.104Z,59.90
2019-02-05T02:03:02.455Z,60.20
2019-02-05T02:05:30.816Z,60.60
2019-02-05T02:08:00.742Z,60.90
2019-02-05T02:10:30.019Z,60.60
2019-02-05T02:12:58.751Z,61.30
2019-02-05T02:15:27.121Z,61.20
2019-02-05T02:17:55.483Z,61.60
2019-02-05T02:20:23.864Z,61.00
2019-02-05T02:22:52.257Z,61.00
2019-02-05T02:25:20.618Z,61.80
2019-02-05T02:27:49.859Z,61.20
2019-02-05T02:30:26.709Z,62.10
2019-02-05T02:32:55.102Z,61.10
2019-02-05T02:35:23.462Z,61.20
2019-02-05T02:37:52.118Z,62.40
2019-02-05T02:40:20.504Z,61.90
2019-02-05T02:42:50.975Z,62.30
2019-02-05T02:45:19.327Z,62.20
2019-02-05T02:47:47.712Z,62.30
2019-02-05T02:50:37.122Z,62.50
2019-02-05T02:53:05.502Z,62.20
2019-02-05T02:55:33.885Z,62.70
2019-02-05T02:58:02.308Z,62.40
2019-02-05T03:00:30.702Z,62.40
2019-02-05T03:02:59.061Z,62.40
2019-02-05T03:05:27.951Z,61.90
2019-02-05T03:07:56.316Z,62.60
2019-02-05T03:10:29.886Z,62.00
2019-02-05T03:12:58.645Z,62.60
2019-02-05T03:15:27.568Z,62.90
2019-02-05T03:17:56.726Z,62.30
2019-02-05T03:20:25.071Z,62.60
2019-02-05T03:22:53.836Z,62.70
2019-02-05T03:25:23.973Z,62.70
2019-02-05T03:27:53.700Z,62.90
2019-02-05T03:30:24.559Z,63.20
2019-02-05T03:32:55.244Z,62.80
2019-02-05T03:38:19.368Z,63.70
2019-02-05T03:41:07.254Z,63.10
2019-02-05T03:43:34.944Z,63.40
2019-02-05T03:46:02.972Z,63.50
2019-02-05T03:48:31.345Z,63.70
2019-02-05T03:51:20.779Z,63.80
2019-02-05T03:57:32.095Z,63.70
2019-02-05T04:00:14.549Z,63.50
2019-02-05T04:03:12.968Z,64.10
2019-02-05T04:06:17.663Z,63.80
2019-02-05T04:09:07.092Z,64.00
2019-02-05T04:11:41.604Z,64.60
2019-02-05T04:14:33.709Z,64.30
2019-02-05T04:17:23.116Z,64.80
2019-02-05T04:20:12.891Z,64.40
2019-02-05T04:25:58.242Z,64.40
2019-02-05T04:28:55.843Z,65.00
2019-02-05T04:31:56.252Z,64.30
2019-02-05T04:34:47.332Z,64.80
2019-02-05T04:37:40.239Z,65.60
2019-02-05T04:40:39.315Z,65.00
2019-02-05T04:43:40.743Z,64.60
2019-02-05T04:49:29.891Z,64.90
2019-02-05T04:52:16.331Z,65.50
2019-02-05T04:55:05.781Z,65.40
2019-02-05T04:57:37.401Z,65.40
2019-02-05T05:00:26.820Z,66.00
2019-02-05T05:03:07.306Z,65.60
2019-02-05T05:06:06.116Z,65.70
2019-02-05T05:08:58.240Z,66.00
2019-02-05T05:11:26.629Z,65.80
2019-02-05T05:13:56.084Z,65.90
2019-02-05T05:16:24.717Z,65.60
2019-02-05T05:18:53.090Z,66.10
2019-02-05T05:21:21.461Z,66.20
2019-02-05T05:23:50.027Z,67.20
2019-02-05T05:26:19.351Z,66.40
2019-02-05T05:28:47.709Z,66.60
2019-02-05T05:31:16.174Z,66.50
2019-02-05T05:33:44.893Z,66.30
2019-02-05T05:36:13.392Z,66.10
2019-02-05T05:38:41.780Z,66.50
2019-02-05T05:41:10.171Z,66.70
2019-02-05T05:43:38.632Z,66.90
2019-02-05T05:46:06.990Z,67.30
2019-02-05T05:48:35.439Z,67.40
2019-02-05T05:51:03.820Z,67.70
2019-02-05T05:53:32.279Z,67.90
2019-02-05T05:56:00.666Z,67.70
2019-02-05T05:58:29.029Z,68.00
2019-02-05T06:00:57.715Z,68.20
2019-02-05T06:03:26.354Z,67.90
2019-02-05T06:05:55.651Z,67.90
2019-02-05T06:08:24.035Z,68.90
2019-02-05T06:10:52.394Z,68.40
2019-02-05T06:13:20.771Z,68.60
2019-02-05T06:15:49.129Z,68.40
2019-02-05T06:18:17.871Z,68.60
2019-02-05T06:20:46.285Z,68.50
2019-02-05T06:23:14.646Z,69.00
2019-02-05T06:25:43.037Z,68.80
2019-02-05T06:28:11.399Z,68.70
2019-02-05T06:30:40.422Z,68.60
2019-02-05T06:33:08.826Z,68.70
2019-02-05T06:35:37.496Z,69.10
2019-02-05T06:38:05.850Z,68.80
2019-02-05T06:40:34.230Z,68.90
2019-02-05T06:43:02.609Z,69.20
2019-02-05T06:45:31.227Z,69.00
2019-02-05T06:47:59.697Z,69.00
2019-02-05T06:50:28.639Z,68.90
2019-02-05T06:52:57.921Z,69.30
2019-02-05T06:55:26.291Z,69.80
2019-02-05T06:57:54.956Z,69.30
2019-02-05T07:00:23.819Z,69.80
2019-02-05T07:02:53.322Z,70.10
2019-02-05T07:05:22.019Z,70.10
2019-02-05T07:07:51.378Z,70.10
2019-02-05T07:10:25.052Z,70.10
2019-02-05T07:12:53.443Z,69.90
2019-02-05T07:15:41.250Z,69.90
2019-02-05T07:18:09.612Z,70.10
2019-02-05T07:20:38.312Z,69.80
2019-02-05T07:23:07.348Z,70.00
2019-02-05T07:25:36.463Z,69.70
2019-02-05T07:28:04.845Z,69.90
2019-02-05T07:30:33.199Z,69.40
2019-02-05T07:33:01.582Z,69.90
2019-02-05T07:35:29.973Z,70.30
2019-02-05T07:38:18.459Z,70.00
2019-02-05T07:40:46.819Z,69.90
2019-02-05T07:43:15.175Z,69.90
2019-02-05T07:45:43.567Z,69.70
2019-02-05T07:48:11.922Z,69.90
2019-02-05T07:50:40.962Z,70.20
2019-02-05T07:53:09.952Z,70.40
2019-02-05T07:55:38.327Z,70.10
2019-02-05T07:58:06.699Z,70.20
2019-02-05T08:00:35.756Z,70.40
2019-02-05T08:03:04.329Z,69.90
2019-02-05T08:05:34.139Z,69.80
2019-02-05T08:08:21.930Z,70.00
2019-02-05T08:10:50.318Z,69.80
2019-02-05T08:13:20.323Z,69.40
2019-02-05T08:15:48.701Z,69.50
2019-02-05T08:18:17.293Z,69.80
2019-02-05T08:20:45.684Z,69.50
2019-02-05T08:23:14.057Z,69.20
2019-02-05T08:25:43.238Z,68.60
2019-02-05T08:28:11.607Z,68.60
2019-02-05T08:31:04.263Z,68.10
2019-02-05T08:33:32.728Z,68.90
2019-02-05T08:36:01.089Z,68.60
2019-02-05T08:38:29.580Z,68.60
2019-02-05T08:40:59.336Z,68.20
2019-02-05T08:43:28.000Z,68.80
2019-02-05T08:45:57.085Z,68.90
2019-02-05T08:48:25.555Z,68.10
2019-02-05T08:50:54.251Z,67.40
2019-02-05T08:53:22.626Z,67.50
2019-02-05T08:55:51.226Z,66.90
2019-02-05T08:58:30.340Z,67.20
2019-02-05T09:00:49.605Z,68.10
2019-02-05T09:03:17.990Z,67.80
2019-02-05T09:05:46.346Z,67.60
2019-02-05T09:08:15.049Z,67.20
2019-02-05T09:10:43.499Z,67.70
2019-02-05T09:13:12.259Z,66.60
2019-02-05T09:15:40.639Z,67.70
2019-02-05T09:18:10.299Z,66.50
2019-02-05T09:20:38.704Z,67.60
2019-02-05T09:23:07.738Z,67.30
2019-02-05T09:25:36.098Z,66.90
2019-02-05T09:28:04.568Z,67.30
2019-02-05T09:30:36.855Z,66.70
2019-02-05T09:33:14.010Z,66.70
2019-02-05T09:35:42.379Z,66.50
2019-02-05T09:38:10.732Z,67.10
2019-02-05T09:40:39.520Z,66.20
2019-02-05T09:43:07.910Z,65.80
2019-02-05T09:45:36.896Z,66.70
2019-02-05T09:48:05.864Z,66.90
2019-02-05T09:50:44.340Z,66.70
2019-02-05T09:53:04.568Z,66.80
2019-02-05T09:55:35.835Z,66.80
2019-02-05T09:58:02.959Z,66.20
2019-02-05T10:00:59.753Z,66.90
2019-02-05T10:03:28.303Z,65.90
2019-02-05T10:05:56.662Z,66.10
2019-02-05T10:08:25.054Z,65.50
2019-02-05T10:10:53.406Z,66.20
2019-02-05T10:13:21.974Z,65.70
2019-02-05T10:15:50.378Z,66.40
2019-02-05T10:18:18.743Z,66.50
2019-02-05T10:20:47.103Z,66.70
2019-02-05T10:23:15.508Z,65.90
2019-02-05T10:25:43.871Z,66.20
2019-02-05T10:28:12.999Z,65.90
2019-02-05T10:30:43.416Z,65.10
2019-02-05T10:33:11.851Z,64.80
2019-02-05T10:35:40.307Z,65.60
2019-02-05T10:38:09.250Z,65.80
2019-02-05T10:40:37.702Z,65.60
2019-02-05T10:43:07.171Z,65.90
2019-02-05T10:45:35.856Z,65.60
2019-02-05T10:48:05.474Z,65.00
2019-02-05T10:50:33.846Z,64.90
2019-02-05T10:53:02.208Z,64.30
2019-02-05T10:55:32.307Z,64.50
2019-02-05T10:58:00.668Z,63.90
2019-02-05T11:00:31.756Z,62.80
2019-02-05T11:03:07.965Z,62.90
2019-02-05T11:05:36.374Z,64.40
2019-02-05T11:08:04.896Z,62.50
2019-02-05T11:10:33.262Z,63.10
2019-02-05T11:13:01.809Z,62.60
2019-02-05T11:15:32.123Z,62.20
2019-02-05T11:18:01.753Z,63.90
2019-02-05T11:20:30.887Z,63.50
2019-02-05T11:22:59.699Z,62.80
2019-02-05T11:25:28.149Z,62.00
2019-02-05T11:27:56.583Z,62.50
2019-02-05T11:30:46.013Z,63.20
2019-02-05T11:33:14.779Z,60.90
2019-02-05T11:35:43.133Z,60.50
2019-02-05T11:38:11.690Z,60.80
2019-02-05T11:40:40.525Z,62.40
2019-02-05T11:43:08.951Z,61.20
2019-02-05T11:45:37.338Z,63.50
2019-02-05T11:48:11.738Z,61.30
2019-02-05T11:50:40.098Z,62.80
2019-02-05T11:53:08.498Z,63.90
2019-02-05T11:55:37.729Z,62.50
2019-02-05T11:58:06.416Z,63.10
2019-02-05T12:03:26.468Z,62.40
2019-02-05T12:05:54.947Z,62.10
2019-02-05T12:08:23.324Z,62.50
2019-02-05T12:10:51.751Z,62.40
2019-02-05T12:13:20.343Z,62.20
2019-02-05T12:15:48.695Z,62.90
2019-02-05T12:18:17.334Z,61.90
2019-02-05T12:20:46.185Z,61.60
2019-02-05T12:23:14.547Z,62.50
2019-02-05T12:25:42.975Z,63.10
2019-02-05T12:28:11.359Z,61.70
2019-02-05T12:30:44.833Z,61.60
2019-02-05T12:33:11.180Z,61.80
2019-02-05T12:35:39.948Z,61.70
2019-02-05T12:38:08.876Z,61.40
2019-02-05T12:40:37.828Z,60.90
2019-02-05T12:43:06.198Z,62.30
2019-02-05T12:45:38.388Z,62.00
2019-02-05T12:48:07.254Z,62.70
2019-02-05T12:50:41.146Z,62.10
2019-02-05T12:53:10.053Z,63.10
2019-02-05T12:55:38.502Z,62.50
2019-02-05T12:58:07.055Z,62.20
2019-02-05T13:01:01.121Z,62.00
2019-02-05T13:03:30.249Z,63.40
2019-02-05T13:05:58.607Z,62.10
2019-02-05T13:08:27.003Z,62.80
2019-02-05T13:10:55.426Z,61.90
2019-02-05T13:13:23.800Z,63.60
2019-02-05T13:15:52.209Z,62.60
2019-02-05T13:18:21.091Z,62.30
2019-02-05T13:20:50.139Z,62.00
2019-02-05T13:23:18.844Z,61.90
2019-02-05T13:25:47.198Z,62.90
2019-02-05T13:28:15.592Z,62.30
2019-02-05T13:30:43.958Z,61.90
2019-02-05T13:33:12.423Z,63.40
2019-02-05T13:35:40.928Z,61.60
2019-02-05T13:38:09.327Z,62.10
2019-02-05T13:40:38.012Z,62.50
2019-02-05T13:43:06.558Z,62.10
2019-02-05T13:45:37.281Z,62.60
2019-02-05T13:48:06.365Z,62.70
2019-02-05T13:50:34.752Z,62.70
2019-02-05T13:53:03.216Z,61.70
2019-02-05T13:55:35.186Z,61.90
2019-02-05T13:58:03.915Z,61.20
2019-02-05T14:00:38.151Z,61.90
2019-02-05T14:03:08.575Z,62.10
2019-02-05T14:05:37.196Z,61.70
2019-02-05T14:08:05.593Z,62.30
2019-02-05T14:10:36.745Z,62.60
2019-02-05T14:13:05.661Z,62.80
2019-02-05T14:15:36.510Z,62.50
2019-02-05T14:18:06.111Z,62.70
2019-02-05T14:20:34.611Z,63.30
2019-02-05T14:23:02.986Z,62.20
2019-02-05T14:25:31.362Z,62.20
2019-02-05T14:27:59.768Z,63.40
2019-02-05T14:30:39.703Z,63.40
2019-02-05T14:33:27.580Z,63.40
2019-02-05T14:35:55.937Z,64.20
2019-02-05T14:38:24.995Z,64.00
2019-02-05T14:41:12.783Z,64.40
2019-02-05T14:43:41.173Z,64.80
2019-02-05T14:46:09.539Z,64.90
2019-02-05T14:48:37.909Z,65.70
2019-02-05T14:51:06.299Z,65.30
2019-02-05T14:53:34.667Z,65.50
2019-02-05T14:56:03.507Z,65.00
2019-02-05T14:58:32.675Z,65.10
2019-02-05T15:01:01.048Z,65.20
2019-02-05T15:03:29.426Z,65.50
2019-02-05T15:05:57.816Z,65.80
2019-02-05T15:08:26.184Z,65.60
2019-02-05T15:10:55.049Z,65.70
2019-02-05T15:13:23.455Z,65.50
2019-02-05T15:15:51.817Z,66.10
2019-02-05T15:18:20.175Z,66.40
2019-02-05T15:20:48.728Z,66.30
2019-02-05T15:23:17.119Z,66.40
2019-02-05T15:25:45.572Z,66.70
2019-02-05T15:28:13.962Z,66.80
2019-02-05T15:30:45.569Z,67.30
2019-02-05T15:33:18.012Z,67.30
2019-02-05T15:35:51.063Z,67.80
2019-02-05T15:38:20.356Z,67.20
2019-02-05T15:40:49.519Z,67.20
2019-02-05T15:43:17.876Z,67.40
2019-02-05T15:45:46.550Z,67.50
2019-02-05T15:48:14.958Z,67.80
2019-02-05T15:50:43.343Z,67.80
2019-02-05T15:53:12.535Z,66.70
2019-02-05T15:55:41.733Z,67.90
2019-02-05T15:58:10.095Z,67.90
2019-02-05T16:00:38.541Z,68.00
2019-02-05T16:03:07.535Z,68.00
2019-02-05T16:05:35.919Z,68.40
2019-02-05T16:08:04.523Z,68.70
2019-02-05T16:10:33.332Z,68.80
2019-02-05T16:13:02.971Z,69.20
2019-02-05T16:15:31.710Z,69.20
2019-02-05T16:18:19.538Z,69.50
2019-02-05T16:20:48.243Z,69.70
2019-02-05T16:23:17.025Z,69.90
2019-02-05T16:26:04.847Z,70.00
2019-02-05T16:28:33.202Z,70.00
2019-02-05T16:31:02.372Z,69.90
2019-02-05T16:33:30.740Z,70.10
2019-02-05T16:35:59.505Z,70.10
2019-02-05T16:38:28.563Z,70.20
2019-02-05T16:40:56.934Z,71.30
2019-02-05T16:43:27.886Z,70.80
2019-02-05T16:45:56.289Z,71.10
2019-02-05T16:48:24.656Z,71.50
2019-02-05T16:50:53.463Z,71.70
2019-02-05T16:53:21.855Z,72.00
2019-02-05T16:55:50.787Z,72.40
2019-02-05T16:58:19.152Z,72.70
2019-02-05T17:00:47.551Z,73.00
2019-02-05T17:03:15.949Z,73.70
2019-02-05T17:05:44.342Z,74.50
2019-02-05T17:08:13.572Z,75.30
2019-02-05T17:10:42.734Z,76.10
2019-02-05T17:13:11.901Z,76.00
2019-02-05T17:15:40.686Z,76.90
2019-02-05T17:18:09.357Z,76.70
2019-02-05T17:20:39.240Z,77.00
2019-02-05T17:23:08.008Z,76.80
2019-02-05T17:25:36.469Z,76.90
2019-02-05T17:28:06.580Z,76.90
2019-02-05T17:30:59.278Z,77.90
2019-02-05T17:33:28.052Z,76.90
2019-02-05T17:35:56.470Z,77.20
2019-02-05T17:38:25.660Z,77.90
2019-02-05T17:40:54.750Z,78.30
2019-02-05T17:43:23.336Z,78.90
2019-02-05T17:45:51.715Z,79.00
2019-02-05T17:48:20.343Z,79.20
2019-02-05T17:50:49.369Z,79.20
2019-02-05T17:53:17.796Z,79.20
2019-02-05T17:55:46.172Z,79.30
2019-02-05T17:58:15.480Z,78.90
2019-02-05T18:00:45.497Z,79.20
2019-02-05T18:03:13.856Z,78.90
2019-02-05T18:05:42.249Z,79.80
2019-02-05T18:08:10.607Z,80.20
2019-02-05T18:10:41.861Z,80.80
2019-02-05T18:13:09.345Z,80.80
2019-02-05T18:15:39.823Z,80.80
2019-02-05T18:18:08.776Z,80.60
2019-02-05T18:20:37.552Z,80.30
2019-02-05T18:23:05.934Z,80.40
2019-02-05T18:25:34.310Z,80.60
2019-02-05T18:28:02.677Z,82.10
2019-02-05T18:30:37.012Z,82.40
2019-02-05T18:33:06.192Z,82.70
2019-02-05T18:35:34.727Z,82.70
2019-02-05T18:38:06.208Z,83.30
2019-02-05T18:40:34.559Z,82.70
2019-02-05T18:43:03.235Z,81.80
2019-02-05T18:45:31.634Z,82.20
2019-02-05T18:48:00.107Z,82.90
2019-02-05T18:50:30.363Z,82.80
2019-02-05T18:53:18.185Z,82.50
2019-02-05T18:55:47.796Z,83.30
2019-02-05T18:58:16.189Z,83.50
2019-02-05T19:00:45.606Z,84.20
2019-02-05T19:03:15.999Z,84.90
2019-02-05T19:05:44.414Z,85.20
2019-02-05T19:08:15.860Z,85.10
2019-02-05T19:10:43.641Z,84.60
2019-02-05T19:13:15.241Z,84.30
2019-02-05T19:15:44.084Z,84.20
2019-02-05T19:18:12.451Z,83.80
2019-02-05T19:20:40.840Z,84.10
2019-02-05T19:23:10.421Z,84.30
2019-02-05T19:25:40.641Z,83.70
2019-02-05T19:28:10.036Z,84.10
2019-02-05T19:30:40.093Z,84.50
2019-02-05T19:33:09.120Z,84.80
2019-02-05T19:35:37.483Z,84.70
2019-02-05T19:38:05.878Z,84.50
2019-02-05T19:40:34.413Z,84.30
2019-02-05T19:43:02.798Z,84.10
2019-02-05T19:45:51.277Z,84.70
2019-02-05T19:48:21.573Z,85.20
2019-02-05T19:50:51.070Z,85.20
2019-02-05T19:53:19.446Z,85.20
2019-02-05T19:55:49.577Z,84.90
2019-02-05T19:58:17.952Z,85.40
2019-02-05T20:00:46.323Z,85.20
2019-02-05T20:03:16.003Z,85.50
2019-02-05T20:05:44.684Z,85.10
2019-02-05T20:08:14.709Z,84.80
2019-02-05T20:10:44.774Z,85.50
2019-02-05T20:13:13.147Z,85.50
2019-02-05T20:15:41.688Z,85.80
2019-02-05T20:18:10.476Z,85.50
2019-02-05T20:20:39.064Z,85.50
2019-02-05T20:23:07.621Z,86.00
2019-02-05T20:25:35.988Z,85.70
2019-02-05T20:28:04.347Z,86.30
2019-02-05T20:30:33.062Z,86.00
2019-02-05T20:33:01.422Z,86.50
2019-02-05T20:35:37.819Z,86.60
2019-02-05T20:38:06.441Z,86.30
2019-02-05T20:40:35.577Z,86.30
2019-02-05T20:43:06.135Z,86.00
2019-02-05T20:45:34.802Z,86.20
2019-02-05T20:48:04.171Z,86.20
2019-02-05T20:50:32.572Z,85.50
2019-02-05T20:53:13.013Z,86.30
2019-02-05T20:55:31.649Z,86.80
2019-02-05T20:58:00.891Z,87.00
2019-02-05T21:00:33.683Z,86.90
2019-02-05T21:03:02.350Z,87.30
2019-02-05T21:05:30.716Z,87.90
2019-02-05T21:07:59.470Z,87.70
2019-02-05T21:10:48.915Z,87.90
2019-02-05T21:13:17.271Z,87.20
2019-02-05T21:15:45.641Z,87.40
2019-02-05T21:18:14.075Z,87.60
2019-02-05T21:20:44.340Z,87.70
2019-02-05T21:23:12.711Z,87.50
2019-02-05T21:25:41.411Z,87.10
2019-02-05T21:28:09.787Z,87.40
2019-02-05T21:30:38.163Z,87.70
2019-02-05T21:33:06.848Z,87.70
2019-02-05T21:35:35.201Z,87.90
2019-02-05T21:38:03.559Z,87.90
2019-02-05T21:40:34.018Z,88.00
2019-02-05T21:43:02.403Z,88.20
2019-02-05T21:45:32.119Z,88.00
2019-02-05T21:48:00.476Z,87.80
2019-02-05T21:50:28.835Z,87.90
2019-02-05T21:52:58.481Z,87.90
2019-02-05T21:55:27.374Z,87.90
2019-02-05T21:57:56.094Z,87.80
2019-02-05T22:00:48.632Z,88.10
2019-02-05T22:03:17.035Z,87.90
2019-02-05T22:05:45.699Z,88.20
2019-02-05T22:08:14.025Z,88.00
2019-02-05T22:10:42.424Z,88.00
2019-02-05T22:13:10.787Z,88.00
2019-02-05T22:15:39.170Z,87.90
2019-02-05T22:18:07.543Z,88.00
2019-02-05T22:20:35.926Z,88.20
2019-02-05T22:23:04.335Z,88.00
2019-02-05T22:25:33.139Z,88.00
2019-02-05T22:28:01.875Z,87.50
2019-02-05T22:30:37.015Z,88.10
2019-02-05T22:33:28.207Z,88.10
2019-02-05T22:35:56.482Z,88.50
2019-02-05T22:38:25.183Z,87.70
2019-02-05T22:40:53.594Z,87.70
2019-02-05T22:43:22.758Z,87.60
2019-02-05T22:45:51.128Z,87.70
2019-02-05T22:48:19.528Z,88.10
2019-02-05T22:50:48.711Z,88.50
2019-02-05T22:53:17.088Z,88.40
2019-02-05T22:55:45.775Z,88.80
2019-02-05T22:58:15.797Z,88.80
2019-02-05T23:01:04.030Z,89.20
2019-02-05T23:03:35.818Z,89.10
2019-02-05T23:06:38.873Z,89.20
2019-02-05T23:09:39.706Z,89.50
2019-02-05T23:12:34.890Z,89.70
2019-02-05T23:15:24.304Z,90.00
2019-02-05T23:17:52.739Z,90.30
2019-02-05T23:20:21.124Z,90.40
2019-02-05T23:22:49.821Z,90.50
2019-02-05T23:25:18.221Z,90.40
2019-02-05T23:27:47.231Z,90.20
2019-02-05T23:30:18.652Z,89.90
2019-02-05T23:32:47.346Z,89.20
2019-02-05T23:35:15.906Z,89.10
2019-02-05T23:37:44.583Z,89.40
2019-02-05T23:40:13.547Z,89.20
2019-02-05T23:42:41.930Z,89.10
2019-02-05T23:45:12.948Z,89.60
2019-02-05T23:47:41.344Z,89.40
2019-02-05T23:50:30.752Z,89.30
2019-02-05T23:52:59.455Z,89.20
2019-02-05T23:55:27.815Z,89.50
2019-02-05T23:57:56.206Z,89.40
